sensor_id;sensor_type;location;lat;lon;timestamp;pressure;altitude;pressure_sealevel;temperature;humidity
33280;BME280;20403;43.114;12.434;2023-05-11T00:00:42;98467.88;;;15.45;100.00
33280;BME280;20403;43.114;12.434;2023-05-11T00:03:08;98461.88;;;15.39;100.00
33280;BME280;20403;43.114;12.434;2023-05-11T00:05:34;98457.41;;;15.40;100.00
33280;BME280;20403;43.114;12.434;2023-05-11T00:07:59;98454.00;;;15.39;100.00
33280;BME280;20403;43.114;12.434;2023-05-11T00:10:27;98445.06;;;15.35;100.00
33280;BME280;20403;43.114;12.434;2023-05-11T00:12:52;98443.47;;;15.34;100.00
33280;BME280;20403;43.114;12.434;2023-05-11T00:15:18;98446.13;;;15.39;100.00
33280;BME280;20403;43.114;12.434;2023-05-11T00:17:43;98447.97;;;15.33;100.00
33280;BME280;20403;43.114;12.434;2023-05-11T00:20:09;98448.19;;;15.42;100.00
33280;BME280;20403;43.114;12.434;2023-05-11T00:22:35;98447.97;;;15.28;100.00
33280;BME280;20403;43.114;12.434;2023-05-11T00:25:01;98445.91;;;15.20;100.00
33280;BME280;20403;43.114;12.434;2023-05-11T00:27:26;98447.97;;;15.28;100.00
33280;BME280;20403;43.114;12.434;2023-05-11T00:29:52;98445.88;;;15.30;100.00
33280;BME280;20403;43.114;12.434;2023-05-11T00:32:17;98455.03;;;15.38;100.00
33280;BME280;20403;43.114;12.434;2023-05-11T00:34:43;98447.94;;;15.39;100.00
33280;BME280;20403;43.114;12.434;2023-05-11T00:37:08;98443.44;;;15.49;100.00
33280;BME280;20403;43.114;12.434;2023-05-11T00:39:33;98443.97;;;15.46;100.00
33280;BME280;20403;43.114;12.434;2023-05-11T00:42:04;98445.53;;;15.47;100.00
33280;BME280;20403;43.114;12.434;2023-05-11T00:44:30;98441.84;;;15.53;100.00
33280;BME280;20403;43.114;12.434;2023-05-11T00:46:56;98446.84;;;15.55;100.00
33280;BME280;20403;43.114;12.434;2023-05-11T00:49:22;98447.88;;;15.54;100.00
33280;BME280;20403;43.114;12.434;2023-05-11T00:51:48;98448.94;;;15.53;100.00
33280;BME280;20403;43.114;12.434;2023-05-11T00:54:14;98453.66;;;15.56;100.00
33280;BME280;20403;43.114;12.434;2023-05-11T00:56:42;98455.78;;;15.49;100.00
33280;BME280;20403;43.114;12.434;2023-05-11T00:59:08;98451.78;;;15.62;100.00
33280;BME280;20403;43.114;12.434;2023-05-11T01:01:33;98458.16;;;15.50;100.00
33280;BME280;20403;43.114;12.434;2023-05-11T01:04:01;98454.75;;;15.45;100.00
33280;BME280;20403;43.114;12.434;2023-05-11T01:09:35;98461.66;;;15.25;100.00
33280;BME280;20403;43.114;12.434;2023-05-11T01:12:21;98462.13;;;15.38;100.00
33280;BME280;20403;43.114;12.434;2023-05-11T01:17:33;98462.47;;;15.21;100.00
33280;BME280;20403;43.114;12.434;2023-05-11T01:20:10;98457.47;;;15.19;100.00
33280;BME280;20403;43.114;12.434;2023-05-11T01:31:14;98476.66;;;15.09;100.00
33280;BME280;20403;43.114;12.434;2023-05-11T01:34:02;98466.69;;;15.11;100.00
33280;BME280;20403;43.114;12.434;2023-05-11T01:36:33;98468.25;;;15.07;100.00
33280;BME280;20403;43.114;12.434;2023-05-11T01:39:07;98475.66;;;14.95;100.00
33280;BME280;20403;43.114;12.434;2023-05-11T01:41:36;98463.31;;;14.90;100.00
33280;BME280;20403;43.114;12.434;2023-05-11T01:44:05;98467.50;;;14.91;100.00
33280;BME280;20403;43.114;12.434;2023-05-11T01:46:32;98471.19;;;14.85;100.00
33280;BME280;20403;43.114;12.434;2023-05-11T01:49:00;98469.63;;;14.74;100.00
33280;BME280;20403;43.114;12.434;2023-05-11T01:51:36;98471.22;;;14.70;100.00
33280;BME280;20403;43.114;12.434;2023-05-11T01:54:05;98471.22;;;14.70;100.00
33280;BME280;20403;43.114;12.434;2023-05-11T01:56:32;98469.38;;;14.70;100.00
33280;BME280;20403;43.114;12.434;2023-05-11T01:58:59;98474.09;;;14.68;100.00
33280;BME280;20403;43.114;12.434;2023-05-11T02:01:26;98476.19;;;14.56;100.00
33280;BME280;20403;43.114;12.434;2023-05-11T02:03:53;98475.13;;;14.47;100.00
33280;BME280;20403;43.114;12.434;2023-05-11T02:06:21;98478.53;;;14.42;100.00
33280;BME280;20403;43.114;12.434;2023-05-11T02:08:47;98472.75;;;14.45;100.00
33280;BME280;20403;43.114;12.434;2023-05-11T02:11:14;98475.91;;;14.42;100.00
33280;BME280;20403;43.114;12.434;2023-05-11T02:13:42;98481.66;;;14.39;100.00
33280;BME280;20403;43.114;12.434;2023-05-11T02:16:09;98478.25;;;14.39;100.00
33280;BME280;20403;43.114;12.434;2023-05-11T02:18:38;98483.78;;;14.37;100.00
33280;BME280;20403;43.114;12.434;2023-05-11T02:21:07;98476.41;;;14.39;100.00
33280;BME280;20403;43.114;12.434;2023-05-11T02:23:33;98484.31;;;14.44;100.00
33280;BME280;20403;43.114;12.434;2023-05-11T02:25:59;98485.88;;;14.35;100.00
33280;BME280;20403;43.114;12.434;2023-05-11T02:28:27;98482.16;;;14.21;100.00
33280;BME280;20403;43.114;12.434;2023-05-11T02:30:54;98484.53;;;14.17;100.00
33280;BME280;20403;43.114;12.434;2023-05-11T02:33:26;98482.16;;;14.11;100.00
33280;BME280;20403;43.114;12.434;2023-05-11T02:35:54;98483.22;;;14.10;100.00
33280;BME280;20403;43.114;12.434;2023-05-11T02:38:25;98482.16;;;14.16;100.00
33280;BME280;20403;43.114;12.434;2023-05-11T02:40:57;98484.50;;;14.07;100.00
33280;BME280;20403;43.114;12.434;2023-05-11T02:43:29;98488.44;;;14.04;100.00
33280;BME280;20403;43.114;12.434;2023-05-11T02:45:59;98486.56;;;13.95;100.00
33280;BME280;20403;43.114;12.434;2023-05-11T02:48:27;98484.97;;;13.88;100.00
33280;BME280;20403;43.114;12.434;2023-05-11T02:50:55;98487.34;;;13.95;100.00
33280;BME280;20403;43.114;12.434;2023-05-11T02:53:26;98487.09;;;13.92;100.00
33280;BME280;20403;43.114;12.434;2023-05-11T02:55:53;98491.28;;;13.98;100.00
33280;BME280;20403;43.114;12.434;2023-05-11T02:58:20;98488.13;;;13.91;100.00
33280;BME280;20403;43.114;12.434;2023-05-11T03:00:45;98487.09;;;13.97;100.00
33280;BME280;20403;43.114;12.434;2023-05-11T03:03:12;98489.19;;;13.95;100.00
33280;BME280;20403;43.114;12.434;2023-05-11T03:05:37;98497.06;;;13.90;100.00
33280;BME280;20403;43.114;12.434;2023-05-11T03:08:03;98494.16;;;13.86;100.00
33280;BME280;20403;43.114;12.434;2023-05-11T03:10:29;98497.31;;;13.88;100.00
33280;BME280;20403;43.114;12.434;2023-05-11T03:12:55;98494.91;;;13.76;100.00
33280;BME280;20403;43.114;12.434;2023-05-11T03:15:20;98492.03;;;13.73;100.00
33280;BME280;20403;43.114;12.434;2023-05-11T03:17:47;98491.72;;;13.64;100.00
33280;BME280;20403;43.114;12.434;2023-05-11T03:20:14;98489.63;;;13.61;100.00
33280;BME280;20403;43.114;12.434;2023-05-11T03:22:42;98480.69;;;13.52;100.00
33280;BME280;20403;43.114;12.434;2023-05-11T03:25:08;98488.25;;;13.48;100.00
33280;BME280;20403;43.114;12.434;2023-05-11T03:27:36;98486.09;;;13.40;100.00
33280;BME280;20403;43.114;12.434;2023-05-11T03:30:06;98482.72;;;13.39;100.00
33280;BME280;20403;43.114;12.434;2023-05-11T03:32:33;98484.53;;;13.39;100.00
33280;BME280;20403;43.114;12.434;2023-05-11T03:34:58;98490.06;;;13.42;100.00
33280;BME280;20403;43.114;12.434;2023-05-11T03:37:24;98493.47;;;13.43;100.00
33280;BME280;20403;43.114;12.434;2023-05-11T03:39:51;98491.09;;;13.41;100.00
33280;BME280;20403;43.114;12.434;2023-05-11T03:42:20;98486.09;;;13.35;100.00
33280;BME280;20403;43.114;12.434;2023-05-11T03:44:47;98488.72;;;13.40;100.00
33280;BME280;20403;43.114;12.434;2023-05-11T03:47:16;98490.03;;;13.37;100.00
33280;BME280;20403;43.114;12.434;2023-05-11T03:49:42;98489.25;;;13.37;100.00
33280;BME280;20403;43.114;12.434;2023-05-11T03:52:09;98491.59;;;13.33;100.00
33280;BME280;20403;43.114;12.434;2023-05-11T03:54:35;98490.78;;;13.28;100.00
33280;BME280;20403;43.114;12.434;2023-05-11T03:57:01;98493.88;;;13.24;100.00
33280;BME280;20403;43.114;12.434;2023-05-11T03:59:26;98501.09;;;13.07;100.00
33280;BME280;20403;43.114;12.434;2023-05-11T04:01:52;98504.66;;;12.91;100.00
33280;BME280;20403;43.114;12.434;2023-05-11T04:04:27;98497.09;;;12.94;100.00
33280;BME280;20403;43.114;12.434;2023-05-11T04:06:53;98499.44;;;12.96;100.00
33280;BME280;20403;43.114;12.434;2023-05-11T04:09:19;98501.56;;;12.99;100.00
33280;BME280;20403;43.114;12.434;2023-05-11T04:11:44;98501.56;;;12.99;100.00
33280;BME280;20403;43.114;12.434;2023-05-11T04:14:10;98501.09;;;13.07;100.00
33280;BME280;20403;43.114;12.434;2023-05-11T04:16:35;98500.66;;;13.20;100.00
33280;BME280;20403;43.114;12.434;2023-05-11T04:19:00;98501.41;;;13.16;100.00
33280;BME280;20403;43.114;12.434;2023-05-11T04:21:26;98503.22;;;13.10;100.00
33280;BME280;20403;43.114;12.434;2023-05-11T04:23:51;98503.50;;;13.14;100.00
33280;BME280;20403;43.114;12.434;2023-05-11T04:26:17;98508.47;;;13.15;100.00
33280;BME280;20403;43.114;12.434;2023-05-11T04:28:42;98510.81;;;13.12;100.00
33280;BME280;20403;43.114;12.434;2023-05-11T04:31:08;98515.28;;;13.16;100.00
33280;BME280;20403;43.114;12.434;2023-05-11T04:33:34;98516.34;;;13.20;100.00
33280;BME280;20403;43.114;12.434;2023-05-11T04:35:59;98518.47;;;13.23;100.00
33280;BME280;20403;43.114;12.434;2023-05-11T04:38:25;98512.78;;;13.32;100.00
33280;BME280;20403;43.114;12.434;2023-05-11T04:40:51;98519.88;;;13.36;100.00
33280;BME280;20403;43.114;12.434;2023-05-11T04:43:16;98524.56;;;13.29;100.00
33280;BME280;20403;43.114;12.434;2023-05-11T04:45:49;98529.28;;;13.32;100.00
33280;BME280;20403;43.114;12.434;2023-05-11T04:48:14;98525.69;;;13.49;100.00
33280;BME280;20403;43.114;12.434;2023-05-11T04:50:41;98528.34;;;13.54;100.00
33280;BME280;20403;43.114;12.434;2023-05-11T04:53:07;98524.97;;;13.58;100.00
33280;BME280;20403;43.114;12.434;2023-05-11T04:55:32;98532.59;;;13.65;100.00
33280;BME280;20403;43.114;12.434;2023-05-11T04:57:58;98530.72;;;13.60;100.00
33280;BME280;20403;43.114;12.434;2023-05-11T05:00:23;98526.03;;;13.62;100.00
33280;BME280;20403;43.114;12.434;2023-05-11T05:02:49;98531.06;;;13.79;100.00
33280;BME280;20403;43.114;12.434;2023-05-11T05:05:17;98531.34;;;13.83;100.00
33280;BME280;20403;43.114;12.434;2023-05-11T05:07:43;98544.53;;;13.98;100.00
33280;BME280;20403;43.114;12.434;2023-05-11T05:10:09;98538.75;;;13.96;100.00
33280;BME280;20403;43.114;12.434;2023-05-11T05:12:36;98543.22;;;14.06;100.00
33280;BME280;20403;43.114;12.434;2023-05-11T05:15:02;98547.47;;;14.22;100.00
33280;BME280;20403;43.114;12.434;2023-05-11T05:17:28;98548.78;;;14.30;100.00
33280;BME280;20403;43.114;12.434;2023-05-11T05:19:53;98545.38;;;14.35;100.00
33280;BME280;20403;43.114;12.434;2023-05-11T05:22:19;98542.28;;;14.53;100.00
33280;BME280;20403;43.114;12.434;2023-05-11T05:24:45;98537.84;;;14.64;100.00
33280;BME280;20403;43.114;12.434;2023-05-11T05:27:10;98546.00;;;14.73;100.00
33280;BME280;20403;43.114;12.434;2023-05-11T05:29:36;98544.44;;;14.82;100.00
33280;BME280;20403;43.114;12.434;2023-05-11T05:32:01;98545.22;;;14.87;100.00
33280;BME280;20403;43.114;12.434;2023-05-11T05:34:27;98541.53;;;14.83;100.00
33280;BME280;20403;43.114;12.434;2023-05-11T05:36:52;98535.25;;;14.79;100.00
33280;BME280;20403;43.114;12.434;2023-05-11T05:39:18;98536.28;;;14.83;100.00
33280;BME280;20403;43.114;12.434;2023-05-11T05:41:43;98542.06;;;14.96;100.00
33280;BME280;20403;43.114;12.434;2023-05-11T05:44:10;98538.09;;;15.08;100.00
33280;BME280;20403;43.114;12.434;2023-05-11T05:46:35;98542.03;;;15.21;100.00
33280;BME280;20403;43.114;12.434;2023-05-11T05:49:01;98542.81;;;15.22;100.00
33280;BME280;20403;43.114;12.434;2023-05-11T05:51:26;98544.63;;;15.31;100.00
33280;BME280;20403;43.114;12.434;2023-05-11T05:53:52;98546.47;;;15.36;100.00
33280;BME280;20403;43.114;12.434;2023-05-11T05:56:17;98557.50;;;15.38;100.00
33280;BME280;20403;43.114;12.434;2023-05-11T05:58:43;98559.34;;;15.38;100.00
33280;BME280;20403;43.114;12.434;2023-05-11T06:01:08;98558.84;;;15.30;100.00
33280;BME280;20403;43.114;12.434;2023-05-11T06:03:34;98558.03;;;15.35;100.00
33280;BME280;20403;43.114;12.434;2023-05-11T06:05:59;98555.16;;;15.37;100.00
33280;BME280;20403;43.114;12.434;2023-05-11T06:08:27;98560.41;;;15.37;100.00
33280;BME280;20403;43.114;12.434;2023-05-11T06:10:52;98557.75;;;15.47;100.00
33280;BME280;20403;43.114;12.434;2023-05-11T06:13:18;98557.75;;;15.47;100.00
33280;BME280;20403;43.114;12.434;2023-05-11T06:15:43;98553.56;;;15.46;100.00
33280;BME280;20403;43.114;12.434;2023-05-11T06:18:09;98555.66;;;15.44;100.00
33280;BME280;20403;43.114;12.434;2023-05-11T06:20:34;98550.13;;;15.45;100.00
33280;BME280;20403;43.114;12.434;2023-05-11T06:23:00;98560.09;;;15.53;100.00
33280;BME280;20403;43.114;12.434;2023-05-11T06:25:25;98560.88;;;15.64;100.00
33280;BME280;20403;43.114;12.434;2023-05-11T06:27:52;98564.53;;;15.73;100.00
33280;BME280;20403;43.114;12.434;2023-05-11T06:30:17;98557.66;;;15.78;100.00
33280;BME280;20403;43.114;12.434;2023-05-11T06:32:43;98566.88;;;15.75;100.00
33280;BME280;20403;43.114;12.434;2023-05-11T06:35:08;98565.31;;;15.74;100.00
33280;BME280;20403;43.114;12.434;2023-05-11T06:37:34;98562.13;;;15.82;100.00
33280;BME280;20403;43.114;12.434;2023-05-11T06:40:00;98562.63;;;15.89;100.00
33280;BME280;20403;43.114;12.434;2023-05-11T06:42:25;98567.66;;;15.75;100.00
33280;BME280;20403;43.114;12.434;2023-05-11T06:44:51;98556.09;;;15.82;100.00
33280;BME280;20403;43.114;12.434;2023-05-11T06:47:16;98564.50;;;15.84;100.00
33280;BME280;20403;43.114;12.434;2023-05-11T06:49:42;98556.03;;;15.97;100.00
33280;BME280;20403;43.114;12.434;2023-05-11T06:52:07;98570.94;;;16.12;100.00
33280;BME280;20403;43.114;12.434;2023-05-11T06:54:33;98565.09;;;16.25;100.00
33280;BME280;20403;43.114;12.434;2023-05-11T06:56:59;98567.47;;;16.27;100.00
33280;BME280;20403;43.114;12.434;2023-05-11T06:59:28;98566.41;;;16.23;100.00
33280;BME280;20403;43.114;12.434;2023-05-11T07:01:53;98568.78;;;16.19;100.00
33280;BME280;20403;43.114;12.434;2023-05-11T07:04:18;98567.50;;;16.16;100.00
33280;BME280;20403;43.114;12.434;2023-05-11T07:06:44;98562.75;;;16.18;100.00
33280;BME280;20403;43.114;12.434;2023-05-11T07:09:09;98560.59;;;16.26;100.00
33280;BME280;20403;43.114;12.434;2023-05-11T07:11:35;98570.06;;;16.32;100.00
33280;BME280;20403;43.114;12.434;2023-05-11T07:14:01;98567.31;;;16.47;100.00
33280;BME280;20403;43.114;12.434;2023-05-11T07:16:27;98574.38;;;16.57;100.00
33280;BME280;20403;43.114;12.434;2023-05-11T07:18:52;98568.81;;;16.58;100.00
33280;BME280;20403;43.114;12.434;2023-05-11T07:21:18;98566.41;;;16.67;100.00
33280;BME280;20403;43.114;12.434;2023-05-11T07:23:46;98565.81;;;16.80;100.00
33280;BME280;20403;43.114;12.434;2023-05-11T07:26:11;98560.81;;;16.79;100.00
33280;BME280;20403;43.114;12.434;2023-05-11T07:28:37;98562.72;;;16.68;100.00
33280;BME280;20403;43.114;12.434;2023-05-11T07:31:03;98555.00;;;16.77;100.00
33280;BME280;20403;43.114;12.434;2023-05-11T07:33:28;98559.09;;;16.93;100.00
33280;BME280;20403;43.114;12.434;2023-05-11T07:35:54;98563.84;;;17.26;100.00
33280;BME280;20403;43.114;12.434;2023-05-11T07:38:19;98568.59;;;17.77;100.00
33280;BME280;20403;43.114;12.434;2023-05-11T07:40:45;98558.72;;;18.06;100.00
33280;BME280;20403;43.114;12.434;2023-05-11T07:43:11;98557.75;;;18.21;100.00
33280;BME280;20403;43.114;12.434;2023-05-11T07:45:38;98561.47;;;18.58;100.00
33280;BME280;20403;43.114;12.434;2023-05-11T07:48:03;98569.47;;;18.53;100.00
33280;BME280;20403;43.114;12.434;2023-05-11T07:50:29;98565.03;;;18.67;100.00
33280;BME280;20403;43.114;12.434;2023-05-11T07:52:54;98565.66;;;18.59;100.00
33280;BME280;20403;43.114;12.434;2023-05-11T07:55:20;98567.44;;;18.64;100.00
33280;BME280;20403;43.114;12.434;2023-05-11T07:57:52;98562.38;;;18.67;100.00
33280;BME280;20403;43.114;12.434;2023-05-11T08:00:18;98567.53;;;18.78;100.00
33280;BME280;20403;43.114;12.434;2023-05-11T08:02:44;98560.13;;;18.94;100.00
33280;BME280;20403;43.114;12.434;2023-05-11T08:05:10;98555.28;;;19.15;100.00
33280;BME280;20403;43.114;12.434;2023-05-11T08:07:35;98562.94;;;19.16;100.00
33280;BME280;20403;43.114;12.434;2023-05-11T08:10:01;98568.91;;;19.22;100.00
33280;BME280;20403;43.114;12.434;2023-05-11T08:12:26;98566.97;;;19.27;100.00
33280;BME280;20403;43.114;12.434;2023-05-11T08:14:52;98567.47;;;19.29;100.00
33280;BME280;20403;43.114;12.434;2023-05-11T08:17:17;98559.84;;;19.42;100.00
33280;BME280;20403;43.114;12.434;2023-05-11T08:19:43;98558.84;;;19.38;100.00
33280;BME280;20403;43.114;12.434;2023-05-11T08:22:08;98565.63;;;19.58;100.00
33280;BME280;20403;43.114;12.434;2023-05-11T08:24:34;98566.44;;;19.86;100.00
33280;BME280;20403;43.114;12.434;2023-05-11T08:26:59;98562.28;;;19.93;100.00
33280;BME280;20403;43.114;12.434;2023-05-11T08:29:25;98561.72;;;19.97;100.00
33280;BME280;20403;43.114;12.434;2023-05-11T08:31:52;98559.47;;;19.90;100.00
33280;BME280;20403;43.114;12.434;2023-05-11T08:34:17;98558.44;;;20.13;100.00
33280;BME280;20403;43.114;12.434;2023-05-11T08:36:43;98559.16;;;20.42;100.00
33280;BME280;20403;43.114;12.434;2023-05-11T08:39:08;98554.13;;;20.18;100.00
33280;BME280;20403;43.114;12.434;2023-05-11T08:41:34;98560.72;;;20.06;100.00
33280;BME280;20403;43.114;12.434;2023-05-11T08:44:00;98554.38;;;20.30;100.00
33280;BME280;20403;43.114;12.434;2023-05-11T08:46:29;98550.50;;;20.50;100.00
33280;BME280;20403;43.114;12.434;2023-05-11T08:48:55;98559.44;;;20.04;100.00
33280;BME280;20403;43.114;12.434;2023-05-11T08:51:24;98562.47;;;19.42;100.00
33280;BME280;20403;43.114;12.434;2023-05-11T08:53:50;98562.63;;;19.18;100.00
33280;BME280;20403;43.114;12.434;2023-05-11T08:56:18;98559.34;;;19.40;100.00
33280;BME280;20403;43.114;12.434;2023-05-11T08:58:46;98551.91;;;19.97;100.00
33280;BME280;20403;43.114;12.434;2023-05-11T09:01:12;98551.41;;;20.68;100.00
33280;BME280;20403;43.114;12.434;2023-05-11T09:03:40;98558.81;;;21.02;100.00
33280;BME280;20403;43.114;12.434;2023-05-11T09:06:06;98556.75;;;20.54;100.00
33280;BME280;20403;43.114;12.434;2023-05-11T09:08:36;98559.72;;;20.16;100.00
33280;BME280;20403;43.114;12.434;2023-05-11T09:11:02;98562.63;;;19.78;100.00
33280;BME280;20403;43.114;12.434;2023-05-11T09:13:29;98560.59;;;19.28;100.00
33280;BME280;20403;43.114;12.434;2023-05-11T09:15:56;98559.03;;;19.14;100.00
33280;BME280;20403;43.114;12.434;2023-05-11T09:18:22;98562.28;;;19.52;100.00
33280;BME280;20403;43.114;12.434;2023-05-11T09:20:49;98560.13;;;19.68;100.00
33280;BME280;20403;43.114;12.434;2023-05-11T09:23:18;98563.84;;;19.39;100.00
33280;BME280;20403;43.114;12.434;2023-05-11T09:25:48;98560.41;;;19.25;100.00
33280;BME280;20403;43.114;12.434;2023-05-11T09:28:13;98549.03;;;19.24;100.00
33280;BME280;20403;43.114;12.434;2023-05-11T09:30:41;98553.38;;;19.48;100.00
33280;BME280;20403;43.114;12.434;2023-05-11T09:33:08;98567.03;;;20.19;100.00
33280;BME280;20403;43.114;12.434;2023-05-11T09:35:34;98543.59;;;20.63;100.00
33280;BME280;20403;43.114;12.434;2023-05-11T09:40:26;98538.25;;;21.08;100.00
33280;BME280;20403;43.114;12.434;2023-05-11T09:42:51;98533.88;;;21.03;100.00
33280;BME280;20403;43.114;12.434;2023-05-11T09:45:43;98537.34;;;21.12;100.00
33280;BME280;20403;43.114;12.434;2023-05-11T09:48:24;98545.16;;;21.17;100.00
33280;BME280;20403;43.114;12.434;2023-05-11T09:50:53;98535.81;;;20.89;100.00
33280;BME280;20403;43.114;12.434;2023-05-11T09:53:36;98549.25;;;20.70;100.00
33280;BME280;20403;43.114;12.434;2023-05-11T09:56:02;98544.50;;;20.58;100.00
33280;BME280;20403;43.114;12.434;2023-05-11T09:58:50;98550.22;;;20.15;100.00
33280;BME280;20403;43.114;12.434;2023-05-11T10:01:18;98546.91;;;19.96;100.00
33280;BME280;20403;43.114;12.434;2023-05-11T10:03:52;98552.78;;;19.65;100.00
33280;BME280;20403;43.114;12.434;2023-05-11T10:06:18;98550.31;;;19.55;100.00
33280;BME280;20403;43.114;12.434;2023-05-11T10:08:45;98554.34;;;19.38;100.00
33280;BME280;20403;43.114;12.434;2023-05-11T10:11:11;98549.38;;;19.37;100.00
33280;BME280;20403;43.114;12.434;2023-05-11T10:13:37;98538.69;;;19.28;100.00
33280;BME280;20403;43.114;12.434;2023-05-11T10:16:04;98539.72;;;19.27;100.00
33280;BME280;20403;43.114;12.434;2023-05-11T10:18:31;98544.16;;;19.45;100.00
33280;BME280;20403;43.114;12.434;2023-05-11T10:20:57;98536.81;;;19.56;100.00
33280;BME280;20403;43.114;12.434;2023-05-11T10:23:24;98541.44;;;19.50;100.00
33280;BME280;20403;43.114;12.434;2023-05-11T10:25:51;98536.53;;;19.30;100.00
33280;BME280;20403;43.114;12.434;2023-05-11T10:28:18;98542.09;;;19.28;100.00
33280;BME280;20403;43.114;12.434;2023-05-11T10:30:45;98530.66;;;19.33;100.00
33280;BME280;20403;43.114;12.434;2023-05-11T10:33:11;98521.94;;;19.60;100.00
33280;BME280;20403;43.114;12.434;2023-05-11T10:35:37;98512.72;;;20.58;100.00
33280;BME280;20403;43.114;12.434;2023-05-11T10:38:03;98509.97;;;21.34;100.00
33280;BME280;20403;43.114;12.434;2023-05-11T10:40:29;98501.66;;;21.67;100.00
33280;BME280;20403;43.114;12.434;2023-05-11T10:43:21;98497.34;;;22.06;100.00
33280;BME280;20403;43.114;12.434;2023-05-11T10:52:00;98494.66;;;21.80;100.00
33280;BME280;20403;43.114;12.434;2023-05-11T10:57:14;98489.19;;;21.19;100.00
33280;BME280;20403;43.114;12.434;2023-05-11T11:02:34;98485.56;;;21.15;100.00
33280;BME280;20403;43.114;12.434;2023-05-11T11:05:00;98477.66;;;21.24;100.00
33280;BME280;20403;43.114;12.434;2023-05-11T11:08:15;98477.44;;;21.11;100.00
33280;BME280;20403;43.114;12.434;2023-05-11T11:10:29;98473.78;;;20.90;100.00
33280;BME280;20403;43.114;12.434;2023-05-11T11:16:08;98478.19;;;20.49;100.00
33280;BME280;20403;43.114;12.434;2023-05-11T11:18:32;98474.28;;;20.24;100.00
33280;BME280;20403;43.114;12.434;2023-05-11T11:20:58;98469.81;;;20.11;100.00
33280;BME280;20403;43.114;12.434;2023-05-11T11:26:11;98459.09;;;19.93;100.00
33280;BME280;20403;43.114;12.434;2023-05-11T11:31:27;98484.22;;;19.68;100.00
33280;BME280;20403;43.114;12.434;2023-05-11T11:33:55;98485.69;;;19.61;100.00
33280;BME280;20403;43.114;12.434;2023-05-11T11:39:43;98475.41;;;19.45;100.00
33280;BME280;20403;43.114;12.434;2023-05-11T11:44:40;98479.00;;;18.94;100.00
33280;BME280;20403;43.114;12.434;2023-05-11T11:47:17;98479.47;;;18.82;100.00
33280;BME280;20403;43.114;12.434;2023-05-11T11:49:46;98492.31;;;18.56;100.00
33280;BME280;20403;43.114;12.434;2023-05-11T11:52:13;98495.28;;;18.17;100.00
33280;BME280;20403;43.114;12.434;2023-05-11T11:55:00;98491.91;;;17.92;100.00
33280;BME280;20403;43.114;12.434;2023-05-11T12:02:25;98495.22;;;17.36;100.00
33280;BME280;20403;43.114;12.434;2023-05-11T12:07:34;98513.03;;;17.20;100.00
33280;BME280;20403;43.114;12.434;2023-05-11T12:10:03;98527.88;;;17.11;100.00
33280;BME280;20403;43.114;12.434;2023-05-11T12:12:29;98519.03;;;17.01;100.00
33280;BME280;20403;43.114;12.434;2023-05-11T12:14:55;98512.13;;;17.06;100.00
33280;BME280;20403;43.114;12.434;2023-05-11T12:17:26;98512.31;;;16.85;100.00
33280;BME280;20403;43.114;12.434;2023-05-11T12:19:53;98524.41;;;16.86;100.00
33280;BME280;20403;43.114;12.434;2023-05-11T12:22:24;98528.66;;;16.77;100.00
33280;BME280;20403;43.114;12.434;2023-05-11T12:24:49;98535.50;;;16.83;100.00
33280;BME280;20403;43.114;12.434;2023-05-11T12:27:16;98537.03;;;16.89;100.00
33280;BME280;20403;43.114;12.434;2023-05-11T12:29:50;98534.47;;;16.79;100.00
33280;BME280;20403;43.114;12.434;2023-05-11T12:32:27;98527.09;;;16.81;100.00
33280;BME280;20403;43.114;12.434;2023-05-11T12:34:59;98534.22;;;16.80;100.00
33280;BME280;20403;43.114;12.434;2023-05-11T12:37:26;98533.91;;;16.87;100.00
33280;BME280;20403;43.114;12.434;2023-05-11T12:39:55;98527.59;;;16.83;100.00
33280;BME280;20403;43.114;12.434;2023-05-11T12:42:21;98522.28;;;16.88;100.00
33280;BME280;20403;43.114;12.434;2023-05-11T12:44:47;98528.03;;;16.95;100.00
33280;BME280;20403;43.114;12.434;2023-05-11T12:47:13;98545.91;;;16.98;100.00
33280;BME280;20403;43.114;12.434;2023-05-11T12:49:40;98550.63;;;17.01;100.00
33280;BME280;20403;43.114;12.434;2023-05-11T12:52:07;98539.97;;;17.17;100.00
33280;BME280;20403;43.114;12.434;2023-05-11T12:54:37;98545.75;;;17.14;100.00
33280;BME280;20403;43.114;12.434;2023-05-11T12:57:05;98551.22;;;17.22;100.00
33280;BME280;20403;43.114;12.434;2023-05-11T13:02:14;98553.63;;;17.19;100.00
33280;BME280;20403;43.114;12.434;2023-05-11T13:04:41;98560.19;;;17.21;100.00
33280;BME280;20403;43.114;12.434;2023-05-11T13:07:07;98564.13;;;17.24;100.00
33280;BME280;20403;43.114;12.434;2023-05-11T13:09:32;98574.88;;;17.28;100.00
33280;BME280;20403;43.114;12.434;2023-05-11T13:12:17;98561.22;;;17.50;100.00
33280;BME280;20403;43.114;12.434;2023-05-11T13:14:45;98556.78;;;17.69;100.00
33280;BME280;20403;43.114;12.434;2023-05-11T13:17:11;98549.00;;;17.83;100.00
33280;BME280;20403;43.114;12.434;2023-05-11T13:19:36;98560.63;;;17.82;100.00
33280;BME280;20403;43.114;12.434;2023-05-11T13:22:04;98564.22;;;17.91;100.00
33280;BME280;20403;43.114;12.434;2023-05-11T13:24:29;98556.06;;;17.88;100.00
33280;BME280;20403;43.114;12.434;2023-05-11T13:26:57;98553.78;;;17.81;100.00
33280;BME280;20403;43.114;12.434;2023-05-11T13:29:22;98555.50;;;17.67;100.00
33280;BME280;20403;43.114;12.434;2023-05-11T13:31:52;98559.81;;;17.57;100.00
33280;BME280;20403;43.114;12.434;2023-05-11T13:34:18;98556.22;;;17.48;100.00